createdAt,value
2022-10-23T00:10:21.180Z,3.4
2022-10-23T00:22:21.204Z,3.1
2022-10-23T00:34:21.236Z,3.1
2022-10-23T00:46:21.431Z,3.1
2022-10-23T00:58:21.299Z,2.7
2022-10-23T01:10:21.291Z,2.7
2022-10-23T01:22:21.302Z,2.5
2022-10-23T01:34:21.270Z,2.5
2022-10-23T01:46:21.299Z,2.5
2022-10-23T01:58:21.284Z,2.4
2022-10-23T02:10:21.241Z,2.4
2022-10-23T02:22:21.188Z,1.9
2022-10-23T02:34:21.298Z,1.9
2022-10-23T02:46:21.277Z,1.9
2022-10-23T02:58:21.182Z,1.7
2022-10-23T03:10:21.287Z,1.7
2022-10-23T03:22:21.177Z,1.8
2022-10-23T03:34:21.272Z,1.8
2022-10-23T03:46:21.177Z,1.8
2022-10-23T03:58:21.298Z,1.5
2022-10-23T04:10:21.495Z,1.5
2022-10-23T04:22:24.693Z,1.4
2022-10-23T04:34:21.248Z,1.4
2022-10-23T04:46:21.292Z,1.4
2022-10-23T04:58:21.178Z,1.3
2022-10-23T05:10:21.174Z,1.3
2022-10-23T05:22:21.179Z,1.1
2022-10-23T05:34:21.304Z,1.1
2022-10-23T05:46:21.187Z,1.1
2022-10-23T05:58:21.243Z,1.3
2022-10-23T06:10:21.184Z,1.3
2022-10-23T06:22:21.299Z,1.1
2022-10-23T06:34:21.282Z,1.1
2022-10-23T06:46:21.255Z,1.1
2022-10-23T06:58:21.301Z,0.9
2022-10-23T07:10:21.177Z,0.9
2022-10-23T07:22:21.172Z,1.3
2022-10-23T07:34:21.259Z,1.3
2022-10-23T07:46:21.305Z,1.3
2022-10-23T07:58:21.177Z,1.1
2022-10-23T08:10:21.290Z,1.1
2022-10-23T08:22:21.362Z,1.2
2022-10-23T08:34:21.306Z,1.2
2022-10-23T08:46:21.269Z,1.2
2022-10-23T08:58:21.272Z,1.5
2022-10-23T09:10:21.253Z,1.5
2022-10-23T09:22:21.697Z,1.6
2022-10-23T09:34:21.312Z,1.6
2022-10-23T09:46:21.190Z,1.6
2022-10-23T09:58:21.183Z,1.5
2022-10-23T10:10:21.294Z,1.5
2022-10-23T10:22:21.277Z,1.7
2022-10-23T10:34:21.232Z,1.7
2022-10-23T10:46:21.182Z,1.7
2022-10-23T10:58:21.305Z,1.9
2022-10-23T11:10:21.176Z,1.9
2022-10-23T11:22:21.282Z,1.3
2022-10-23T11:34:21.300Z,1.3
2022-10-23T11:46:21.265Z,1.3
2022-10-23T11:58:21.184Z,2.6
2022-10-23T12:10:21.267Z,2.6
2022-10-23T12:22:21.360Z,2.2
2022-10-23T12:34:21.306Z,2.2
2022-10-23T12:46:21.182Z,2.2
2022-10-23T12:58:21.236Z,2.2
2022-10-23T13:10:21.178Z,2.2
2022-10-23T13:22:21.179Z,2.0
2022-10-23T13:34:21.261Z,2.0
2022-10-23T13:46:21.285Z,2.0
2022-10-23T13:58:21.187Z,1.9
2022-10-23T14:10:23.538Z,1.9
2022-10-23T14:22:21.254Z,1.7
2022-10-23T14:34:21.305Z,1.7
2022-10-23T14:46:21.301Z,1.7
2022-10-23T14:58:21.177Z,1.6
2022-10-23T15:10:21.180Z,1.6
2022-10-23T15:22:21.293Z,1.6
2022-10-23T15:34:21.290Z,1.6
2022-10-23T15:46:21.301Z,1.6
2022-10-23T15:58:21.268Z,1.4
2022-10-23T16:10:21.296Z,1.4
2022-10-23T16:22:21.276Z,1.3
2022-10-23T16:34:21.258Z,1.3
2022-10-23T16:46:21.302Z,1.3
2022-10-23T16:58:21.293Z,1.3
2022-10-23T17:10:21.280Z,1.3
2022-10-23T17:22:21.184Z,1.4
2022-10-23T17:34:21.313Z,1.4
2022-10-23T17:46:21.188Z,1.4
2022-10-23T17:58:21.285Z,1.5
2022-10-23T18:10:21.187Z,1.5
2022-10-23T18:22:21.193Z,1.7
2022-10-23T18:34:21.265Z,1.7
2022-10-23T18:46:21.267Z,1.7
2022-10-23T18:58:21.266Z,1.4
2022-10-23T19:10:21.299Z,1.4
2022-10-23T19:22:21.217Z,1.1
2022-10-23T19:34:21.245Z,1.1
2022-10-23T19:46:21.178Z,1.1
2022-10-23T19:58:21.295Z,1.2
2022-10-23T20:10:21.237Z,1.2
2022-10-23T20:22:21.244Z,1.2
2022-10-23T20:34:21.212Z,1.2
2022-10-23T20:46:21.298Z,1.2
2022-10-23T20:58:21.271Z,1.2
2022-10-23T21:10:21.250Z,1.2
2022-10-23T21:22:21.276Z,1.4
2022-10-23T21:34:21.398Z,1.4
2022-10-23T21:46:21.267Z,1.4
2022-10-23T21:58:21.186Z,1.2
2022-10-23T22:10:21.272Z,1.2
2022-10-23T22:22:21.186Z,1.2
2022-10-23T22:34:27.285Z,1.2
2022-10-23T22:46:21.179Z,1.2
2022-10-23T22:58:21.478Z,1.2
2022-10-23T23:10:21.294Z,1.2
2022-10-23T23:22:21.308Z,1.0
2022-10-23T23:34:21.182Z,1.0
2022-10-23T23:46:21.277Z,1.0
2022-10-23T23:58:21.297Z,1.1
